Hammonton, California
Current Conditions -  °F | °C
As of 6:58 PM on Monday 22 Dec 2014 (Local Time) from KBAB Reporting Station
Clear Clear  
Wind Chill: 52°   Ceiling: Unl
Heat Index: 52°   Visibility: 10mi
Dew Point: 52°   Wind: 5mph
Humidity: 100%   Direction: 110°ESE
Pressure: 30.16"   Gusts: NA
Location:  39.1912°N, 121.489°W
Report Text: KBAB 230258Z 11004KT 10SM CLR 11/11 A3016 RMK AO2A SLP290 55000 $
Loading
Personal Weather Stations






























Interactive Weather Map New forecast layout! Learn more

10-Day Weather Forecast

Advertisements
Track Severe Weather on mobile